Wetterstation Oberdrees
Wetterdaten: aktuell Donnerstag, 15.04.2021 04:45
Datum Zeit Temp. A. Feuchte A. Luftdruck Regen Wind Richtung Richtung Taupunkt Windchill Windben
15.04.2021 04:45 -0,4 C 91 % 1030,5 hPa 0,0 l/m 0,0 km/h (0 Bft) W-SW 251 -1,7 C -0,4 C 0,0 km/h (0 Bft)
15.04.2021 04:40 -0,4 C 91 % 1030,6 hPa 0,0 l/m 0,2 km/h (0 Bft) W-SW 252 -1,7 C -0,4 C 1,6 km/h (1 Bft)
15.04.2021 04:35 -0,4 C 91 % 1030,5 hPa 0,0 l/m 1,0 km/h (0 Bft) W-SW 250 -1,7 C -0,4 C 4,8 km/h (1 Bft)
15.04.2021 04:30 -0,5 C 91 % 1030,5 hPa 0,0 l/m 0,1 km/h (0 Bft) W 261 -1,8 C -0,5 C 1,6 km/h (1 Bft)
15.04.2021 04:25 -0,5 C 90 % 1030,5 hPa 0,0 l/m 0,6 km/h (0 Bft) W 261 -1,9 C -0,5 C 3,2 km/h (1 Bft)
15.04.2021 04:20 -0,4 C 90 % 1030,5 hPa 0,0 l/m 0,0 km/h (0 Bft) W 261 -1,8 C -0,4 C 0,0 km/h (0 Bft)
15.04.2021 04:15 -0,4 C 90 % 1030,4 hPa 0,0 l/m 0,8 km/h (0 Bft) W 261 -1,8 C -0,4 C 3,2 km/h (1 Bft)
15.04.2021 04:10 -0,3 C 90 % 1030,5 hPa 0,0 l/m 1,2 km/h (1 Bft) W 261 -1,7 C -0,3 C 3,2 km/h (1 Bft)
15.04.2021 04:05 -0,2 C 90 % 1030,5 hPa 0,0 l/m 1,8 km/h (1 Bft) W 262 -1,6 C -0,2 C 4,8 km/h (1 Bft)
15.04.2021 04:00 -0,2 C 90 % 1030,4 hPa 0,0 l/m 1,1 km/h (1 Bft) W-SW 241 -1,6 C -0,2 C 4,8 km/h (1 Bft)
15.04.2021 03:55 -0,1 C 90 % 1030,4 hPa 0,0 l/m 0,7 km/h (0 Bft) W-SW 244 -1,5 C -0,1 C 3,2 km/h (1 Bft)
15.04.2021 03:50 -0,1 C 90 % 1030,4 hPa 0,0 l/m 0,1 km/h (0 Bft) W-SW 244 -1,5 C -0,1 C 1,6 km/h (1 Bft)
15.04.2021 03:45 -0,1 C 90 % 1030,4 hPa 0,0 l/m 1,7 km/h (1 Bft) W-SW 244 -1,5 C -0,1 C 4,8 km/h (1 Bft)
15.04.2021 03:40 -0,2 C 90 % 1030,4 hPa 0,0 l/m 1,7 km/h (1 Bft) W-SW 247 -1,6 C -0,2 C 4,8 km/h (1 Bft)
15.04.2021 03:35 -0,2 C 89 % 1030,5 hPa 0,0 l/m 1,1 km/h (1 Bft) W-SW 254 -1,8 C -0,2 C 4,8 km/h (1 Bft)
15.04.2021 03:30 -0,1 C 90 % 1030,4 hPa 0,0 l/m 1,9 km/h (1 Bft) W-SW 256 -1,5 C -0,1 C 4,8 km/h (1 Bft)
15.04.2021 03:25 -0,1 C 90 % 1030,4 hPa 0,0 l/m 2,9 km/h (1 Bft) W-SW 258 -1,5 C -0,1 C 4,8 km/h (1 Bft)
15.04.2021 03:20 -0,1 C 90 % 1030,5 hPa 0,0 l/m 1,6 km/h (1 Bft) W 265 -1,5 C -0,1 C 4,8 km/h (1 Bft)
15.04.2021 03:15 -0,1 C 90 % 1030,5 hPa 0,0 l/m 1,4 km/h (1 Bft) SW 236 -1,5 C -0,1 C 3,2 km/h (1 Bft)
15.04.2021 03:10 -0,2 C 90 % 1030,6 hPa 0,0 l/m 0,7 km/h (0 Bft) SW 234 -1,6 C -0,2 C 3,2 km/h (1 Bft)
15.04.2021 03:05 -0,1 C 89 % 1030,5 hPa 0,0 l/m 2,0 km/h (1 Bft) SW 233 -1,7 C -0,1 C 4,8 km/h (1 Bft)
15.04.2021 03:00 -0,1 C 89 % 1030,5 hPa 0,0 l/m 2,6 km/h (1 Bft) SW 232 -1,7 C -0,1 C 6,4 km/h (2 Bft)
15.04.2021 02:55 0,0 C 89 % 1030,5 hPa 0,0 l/m 2,8 km/h (1 Bft) W 265 -1,6 C 0,0 C 6,4 km/h (2 Bft)
15.04.2021 02:50 -0,1 C 90 % 1030,5 hPa 0,0 l/m 3,7 km/h (1 Bft) W 269 -1,5 C -0,1 C 6,4 km/h (2 Bft)
15.04.2021 02:45 -0,1 C 89 % 1030,5 hPa 0,0 l/m 1,5 km/h (1 Bft) W-NW 289 -1,7 C -0,1 C 6,4 km/h (2 Bft)
15.04.2021 02:40 0,0 C 89 % 1030,4 hPa 0,0 l/m 0,0 km/h (0 Bft) SW 225 -1,6 C 0,0 C 0,0 km/h (0 Bft)
15.04.2021 02:35 0,0 C 89 % 1030,5 hPa 0,0 l/m 0,0 km/h (0 Bft) SW 225 -1,6 C 0,0 C 0,0 km/h (0 Bft)
15.04.2021 02:30 0,1 C 89 % 1030,6 hPa 0,0 l/m 0,0 km/h (0 Bft) SW 225 -1,5 C 0,1 C 0,0 km/h (0 Bft)
15.04.2021 02:25 0,1 C 89 % 1030,6 hPa 0,0 l/m 0,0 km/h (0 Bft) SW 225 -1,5 C 0,1 C 0,0 km/h (0 Bft)
15.04.2021 02:20 0,1 C 90 % 1030,6 hPa 0,0 l/m 0,0 km/h (0 Bft) SW 225 -1,3 C 0,1 C 0,0 km/h (0 Bft)
15.04.2021 02:15 0,1 C 90 % 1030,8 hPa 0,0 l/m 0,0 km/h (0 Bft) N 360 -1,3 C 0,1 C 0,0 km/h (0 Bft)
15.04.2021 02:10 0,0 C 90 % 1030,7 hPa 0,0 l/m 0,0 km/h (0 Bft) SW 225 -1,4 C 0,0 C 0,0 km/h (0 Bft)
15.04.2021 02:05 -0,2 C 91 % 1030,8 hPa 0,0 l/m 0,0 km/h (0 Bft) N 360 -1,5 C -0,2 C 0,0 km/h (0 Bft)
15.04.2021 02:00 -0,3 C 91 % 1030,8 hPa 0,0 l/m 0,0 km/h (0 Bft) SW 225 -1,6 C -0,3 C 0,0 km/h (0 Bft)
15.04.2021 01:55 -0,4 C 90 % 1030,8 hPa 0,0 l/m 0,0 km/h (0 Bft) SW 225 -1,8 C -0,4 C 0,0 km/h (0 Bft)
15.04.2021 01:50 -0,4 C 90 % 1030,8 hPa 0,0 l/m 0,0 km/h (0 Bft) SW 225 -1,8 C -0,4 C 0,0 km/h (0 Bft)
15.04.2021 01:45 -0,5 C 90 % 1030,9 hPa 0,0 l/m 0,0 km/h (0 Bft) SW 225 -1,9 C -0,5 C 1,6 km/h (1 Bft)
15.04.2021 01:40 -0,4 C 90 % 1030,9 hPa 0,0 l/m 0,0 km/h (0 Bft) SW 225 -1,8 C -0,4 C 0,0 km/h (0 Bft)
15.04.2021 01:35 -0,3 C 90 % 1030,9 hPa 0,0 l/m 0,0 km/h (0 Bft) SW 225 -1,7 C -0,3 C 0,0 km/h (0 Bft)
15.04.2021 01:30 -0,3 C 90 % 1031,0 hPa 0,0 l/m 0,0 km/h (0 Bft) SW 225 -1,7 C -0,3 C 0,0 km/h (0 Bft)
15.04.2021 01:25 -0,2 C 89 % 1031,0 hPa 0,0 l/m 0,0 km/h (0 Bft) SW 225 -1,8 C -0,2 C 0,0 km/h (0 Bft)
15.04.2021 01:20 -0,2 C 89 % 1031,1 hPa 0,0 l/m 0,0 km/h (0 Bft) SW 225 -1,8 C -0,2 C 0,0 km/h (0 Bft)
15.04.2021 01:15 -0,1 C 90 % 1031,0 hPa 0,0 l/m 0,0 km/h (0 Bft) SW 225 -1,5 C -0,1 C 0,0 km/h (0 Bft)
15.04.2021 01:10 0,0 C 90 % 1031,0 hPa 0,0 l/m 0,1 km/h (0 Bft) SW 225 -1,4 C 0,0 C 1,6 km/h (1 Bft)
15.04.2021 01:05 0,1 C 90 % 1030,9 hPa 0,0 l/m 0,2 km/h (0 Bft) SW 234 -1,3 C 0,1 C 1,6 km/h (1 Bft)
15.04.2021 01:00 0,0 C 90 % 1030,8 hPa 0,0 l/m 1,0 km/h (0 Bft) SW 234 -1,4 C 0,0 C 3,2 km/h (1 Bft)
15.04.2021 00:55 -0,1 C 90 % 1030,8 hPa 0,0 l/m 1,3 km/h (1 Bft) SW 234 -1,5 C -0,1 C 3,2 km/h (1 Bft)
15.04.2021 00:50 0,0 C 89 % 1030,8 hPa 0,0 l/m 0,2 km/h (0 Bft) SW 234 -1,6 C 0,0 C 4,8 km/h (1 Bft)
15.04.2021 00:45 0,1 C 89 % 1030,7 hPa 0,0 l/m 0,8 km/h (0 Bft) SW 234 -1,5 C 0,1 C 4,8 km/h (1 Bft)
15.04.2021 00:40 0,2 C 90 % 1030,7 hPa 0,0 l/m 1,7 km/h (1 Bft) SW 234 -1,2 C 0,2 C 4,8 km/h (1 Bft)
15.04.2021 00:35 0,1 C 90 % 1030,7 hPa 0,0 l/m 1,6 km/h (1 Bft) SW 229 -1,3 C 0,1 C 4,8 km/h (1 Bft)
15.04.2021 00:30 0,0 C 91 % 1030,7 hPa 0,0 l/m 0,3 km/h (0 Bft) SW 227 -1,3 C 0,0 C 3,2 km/h (1 Bft)
15.04.2021 00:25 -0,1 C 91 % 1030,8 hPa 0,0 l/m 1,8 km/h (1 Bft) SW 227 -1,4 C -0,1 C 6,4 km/h (2 Bft)
15.04.2021 00:20 -0,2 C 90 % 1030,7 hPa 0,0 l/m 0,0 km/h (0 Bft) SW 226 -1,6 C -0,2 C 0,0 km/h (0 Bft)
15.04.2021 00:15 -0,2 C 90 % 1030,7 hPa 0,0 l/m 0,0 km/h (0 Bft) SW 226 -1,6 C -0,2 C 0,0 km/h (0 Bft)
15.04.2021 00:10 -0,2 C 90 % 1030,7 hPa 0,0 l/m 0,0 km/h (0 Bft) SW 226 -1,6 C -0,2 C 0,0 km/h (0 Bft)
15.04.2021 00:05 -0,1 C 91 % 1030,8 hPa 0,0 l/m 0,0 km/h (0 Bft) SW 226 -1,4 C -0,1 C 0,0 km/h (0 Bft)
15.04.2021 00:00 -0,1 C 90 % 1030,8 hPa 0,0 l/m 0,0 km/h (0 Bft) SW 226 -1,5 C -0,1 C 0,0 km/h (0 Bft)
14.04.2021 23:55 -0,1 C 90 % 1030,9 hPa 0,0 l/m 0,0 km/h (0 Bft) SW 226 -1,5 C -0,1 C 0,0 km/h (0 Bft)
14.04.2021 23:50 0,0 C 90 % 1030,8 hPa 0,0 l/m 0,0 km/h (0 Bft) SW 226 -1,4 C 0,0 C 0,0 km/h (0 Bft)
14.04.2021 23:45 0,1 C 90 % 1030,8 hPa 0,0 l/m 0,6 km/h (0 Bft) SW 226 -1,3 C 0,1 C 1,6 km/h (1 Bft)
14.04.2021 23:40 0,1 C 91 % 1030,8 hPa 0,0 l/m 3,5 km/h (1 Bft) SW 226 -1,2 C 0,1 C 6,4 km/h (2 Bft)
14.04.2021 23:35 0,1 C 91 % 1030,8 hPa 0,0 l/m 2,6 km/h (1 Bft) SW 226 -1,2 C 0,1 C 6,4 km/h (2 Bft)
14.04.2021 23:30 0,1 C 90 % 1030,9 hPa 0,0 l/m 0,4 km/h (0 Bft) S-SW 195 -1,3 C 0,1 C 4,8 km/h (1 Bft)
14.04.2021 23:25 0,1 C 90 % 1030,8 hPa 0,0 l/m 0,6 km/h (0 Bft) O-SO 107 -1,3 C 0,1 C 1,6 km/h (1 Bft)
14.04.2021 23:20 0,1 C 90 % 1031,0 hPa 0,0 l/m 0,0 km/h (0 Bft) O-SO 107 -1,3 C 0,1 C 0,0 km/h (0 Bft)
14.04.2021 23:15 0,2 C 90 % 1030,9 hPa 0,0 l/m 0,0 km/h (0 Bft) O-SO 107 -1,2 C 0,2 C 0,0 km/h (0 Bft)
14.04.2021 23:10 0,2 C 90 % 1031,0 hPa 0,0 l/m 0,5 km/h (0 Bft) O-SO 107 -1,2 C 0,2 C 1,6 km/h (1 Bft)
14.04.2021 23:05 0,2 C 90 % 1031,0 hPa 0,0 l/m 1,3 km/h (1 Bft) O-SO 107 -1,2 C 0,2 C 4,8 km/h (1 Bft)
14.04.2021 23:00 0,2 C 89 % 1030,8 hPa 0,0 l/m 3,0 km/h (1 Bft) S-SW 209 -1,4 C 0,2 C 4,8 km/h (1 Bft)
14.04.2021 22:55 0,3 C 89 % 1030,9 hPa 0,0 l/m 0,9 km/h (0 Bft) S-SW 209 -1,3 C 0,3 C 3,2 km/h (1 Bft)
14.04.2021 22:50 0,4 C 89 % 1031,0 hPa 0,0 l/m 0,1 km/h (0 Bft) S 190 -1,2 C 0,4 C 3,2 km/h (1 Bft)
14.04.2021 22:45 0,5 C 89 % 1031,0 hPa 0,0 l/m 0,0 km/h (0 Bft) S 189 -1,1 C 0,5 C 0,0 km/h (0 Bft)
14.04.2021 22:40 0,6 C 88 % 1031,0 hPa 0,0 l/m 0,0 km/h (0 Bft) S 190 -1,2 C 0,6 C 0,0 km/h (0 Bft)
14.04.2021 22:35 0,8 C 89 % 1030,9 hPa 0,0 l/m 0,0 km/h (0 Bft) S 189 -0,8 C 0,8 C 0,0 km/h (0 Bft)
14.04.2021 22:30 0,9 C 89 % 1030,9 hPa 0,0 l/m 0,0 km/h (0 Bft) S 190 -0,7 C 0,9 C 0,0 km/h (0 Bft)
14.04.2021 22:25 0,9 C 89 % 1030,9 hPa 0,0 l/m 0,0 km/h (0 Bft) S 190 -0,7 C 0,9 C 0,0 km/h (0 Bft)
14.04.2021 22:20 1,0 C 89 % 1030,8 hPa 0,0 l/m 0,0 km/h (0 Bft) S 190 -0,6 C 1,0 C 0,0 km/h (0 Bft)
14.04.2021 22:15 1,1 C 89 % 1030,9 hPa 0,0 l/m 0,0 km/h (0 Bft) S 190 -0,5 C 1,1 C 1,6 km/h (1 Bft)
14.04.2021 22:10 1,1 C 89 % 1030,8 hPa 0,0 l/m 0,1 km/h (0 Bft) S 189 -0,5 C 1,1 C 1,6 km/h (1 Bft)
14.04.2021 22:05 1,1 C 89 % 1030,7 hPa 0,0 l/m 0,1 km/h (0 Bft) S 190 -0,5 C 1,1 C 1,6 km/h (1 Bft)
14.04.2021 22:00 1,2 C 88 % 1030,8 hPa 0,0 l/m 0,2 km/h (0 Bft) S 190 -0,6 C 1,2 C 1,6 km/h (1 Bft)
14.04.2021 21:55 1,2 C 88 % 1030,7 hPa 0,0 l/m 0,0 km/h (0 Bft) S 189 -0,6 C 1,2 C 0,0 km/h (0 Bft)
14.04.2021 21:50 1,3 C 87 % 1030,7 hPa 0,0 l/m 0,0 km/h (0 Bft) S 189 -0,6 C 1,3 C 0,0 km/h (0 Bft)
14.04.2021 21:45 1,4 C 87 % 1030,7 hPa 0,0 l/m 0,0 km/h (0 Bft) S 189 -0,5 C 1,4 C 0,0 km/h (0 Bft)
14.04.2021 21:40 1,6 C 87 % 1030,7 hPa 0,0 l/m 0,0 km/h (0 Bft) W-SW 250 -0,3 C 1,6 C 0,0 km/h (0 Bft)
14.04.2021 21:35 1,7 C 86 % 1030,7 hPa 0,0 l/m 2,3 km/h (1 Bft) W-SW 250 -0,4 C 1,7 C 4,8 km/h (1 Bft)
14.04.2021 21:30 2,1 C 85 % 1030,6 hPa 0,0 l/m 0,5 km/h (0 Bft) W-SW 250 -0,2 C 2,1 C 4,8 km/h (1 Bft)
14.04.2021 21:25 2,3 C 85 % 1030,5 hPa 0,0 l/m 0,0 km/h (0 Bft) W 271 0,0 C 2,3 C 0,0 km/h (0 Bft)
14.04.2021 21:20 2,4 C 85 % 1030,5 hPa 0,0 l/m 0,0 km/h (0 Bft) W 271 0,1 C 2,4 C 0,0 km/h (0 Bft)
14.04.2021 21:15 2,5 C 85 % 1030,5 hPa 0,0 l/m 0,0 km/h (0 Bft) W 271 0,2 C 2,5 C 0,0 km/h (0 Bft)
14.04.2021 21:10 2,7 C 85 % 1030,3 hPa 0,0 l/m 0,0 km/h (0 Bft) W 271 0,4 C 2,7 C 0,0 km/h (0 Bft)
14.04.2021 21:05 2,8 C 84 % 1030,4 hPa 0,0 l/m 0,0 km/h (0 Bft) W 271 0,4 C 2,8 C 0,0 km/h (0 Bft)
14.04.2021 21:00 2,9 C 84 % 1030,3 hPa 0,0 l/m 0,0 km/h (0 Bft) W 271 0,5 C 2,9 C 0,0 km/h (0 Bft)
14.04.2021 20:55 3,1 C 84 % 1030,3 hPa 0,0 l/m 0,0 km/h (0 Bft) W 273 0,7 C 3,1 C 0,0 km/h (0 Bft)
14.04.2021 20:50 3,2 C 84 % 1030,2 hPa 0,0 l/m 0,0 km/h (0 Bft) W 273 0,8 C 3,2 C 0,0 km/h (0 Bft)
14.04.2021 20:45 3,3 C 83 % 1030,3 hPa 0,0 l/m 0,0 km/h (0 Bft) W 273 0,7 C 3,3 C 1,6 km/h (1 Bft)
14.04.2021 20:40 3,4 C 83 % 1030,1 hPa 0,0 l/m 0,4 km/h (0 Bft) W 273 0,8 C 3,4 C 1,6 km/h (1 Bft)
14.04.2021 20:35 3,5 C 83 % 1030,2 hPa 0,0 l/m 2,2 km/h (1 Bft) W 273 0,9 C 3,5 C 4,8 km/h (1 Bft)
14.04.2021 20:30 3,6 C 83 % 1030,1 hPa 0,0 l/m 1,3 km/h (1 Bft) NW 324 1,0 C 3,6 C 4,8 km/h (1 Bft)
14.04.2021 20:25 3,6 C 83 % 1030,1 hPa 0,0 l/m 2,8 km/h (1 Bft) W-SW 255 1,0 C 3,6 C 6,4 km/h (2 Bft)
14.04.2021 20:20 3,7 C 83 % 1030,1 hPa 0,0 l/m 1,3 km/h (1 Bft) SW 236 1,1 C 3,7 C 4,8 km/h (1 Bft)
14.04.2021 20:15 3,8 C 83 % 1030,1 hPa 0,0 l/m 1,7 km/h (1 Bft) W 262 1,2 C 3,8 C 4,8 km/h (1 Bft)
14.04.2021 20:10 3,9 C 83 % 1030,0 hPa 0,0 l/m 0,0 km/h (0 Bft) W-SW 241 1,3 C 3,9 C 0,0 km/h (0 Bft)
14.04.2021 20:05 4,1 C 83 % 1030,0 hPa 0,0 l/m 0,6 km/h (0 Bft) W-SW 241 1,5 C 4,1 C 3,2 km/h (1 Bft)
14.04.2021 20:00 4,2 C 82 % 1030,0 hPa 0,0 l/m 2,7 km/h (1 Bft) W-SW 240 1,4 C 4,2 C 6,4 km/h (2 Bft)
14.04.2021 19:55 4,4 C 82 % 1030,0 hPa 0,0 l/m 2,9 km/h (1 Bft) W-SW 255 1,6 C 4,4 C 4,8 km/h (1 Bft)
14.04.2021 19:50 4,6 C 82 % 1030,1 hPa 0,0 l/m 3,1 km/h (1 Bft) W-SW 240 1,8 C 4,6 C 6,4 km/h (2 Bft)
14.04.2021 19:45 4,7 C 82 % 1030,0 hPa 0,0 l/m 3,1 km/h (1 Bft) W-SW 252 1,9 C 4,7 C 6,4 km/h (2 Bft)
14.04.2021 19:40 4,9 C 82 % 1030,0 hPa 0,0 l/m 3,1 km/h (1 Bft) SW 228 2,1 C 4,9 C 6,4 km/h (2 Bft)
14.04.2021 19:35 5,1 C 81 % 1029,9 hPa 0,0 l/m 2,9 km/h (1 Bft) W 270 2,1 C 5,1 C 6,4 km/h (2 Bft)
14.04.2021 19:30 5,2 C 81 % 1030,0 hPa 0,0 l/m 3,1 km/h (1 Bft) W 266 2,2 C 5,2 C 6,4 km/h (2 Bft)
14.04.2021 19:25 5,2 C 80 % 1030,0 hPa 0,0 l/m 2,1 km/h (1 Bft) W 271 2,0 C 5,2 C 6,4 km/h (2 Bft)
14.04.2021 19:20 5,2 C 80 % 1030,0 hPa 0,0 l/m 2,6 km/h (1 Bft) W-SW 248 2,0 C 5,2 C 6,4 km/h (2 Bft)
14.04.2021 19:15 5,2 C 80 % 1030,0 hPa 0,0 l/m 1,4 km/h (1 Bft) SW 235 2,0 C 5,2 C 6,4 km/h (2 Bft)
14.04.2021 19:10 5,1 C 80 % 1030,1 hPa 0,0 l/m 3,0 km/h (1 Bft) W-SW 251 1,9 C 5,1 C 6,4 km/h (2 Bft)
14.04.2021 19:05 5,1 C 80 % 1030,0 hPa 0,0 l/m 3,5 km/h (1 Bft) SW 231 1,9 C 5,1 C 6,4 km/h (2 Bft)
14.04.2021 19:00 5,0 C 80 % 1030,1 hPa 0,0 l/m 2,7 km/h (1 Bft) W-SW 241 1,8 C 5,0 C 4,8 km/h (1 Bft)
14.04.2021 18:55 4,9 C 81 % 1030,1 hPa 0,0 l/m 2,2 km/h (1 Bft) W-SW 248 1,9 C 4,9 C 4,8 km/h (1 Bft)
14.04.2021 18:50 5,0 C 80 % 1030,1 hPa 0,0 l/m 3,9 km/h (1 Bft) W-SW 242 1,8 C 5,0 C 6,4 km/h (2 Bft)
14.04.2021 18:45 4,9 C 82 % 1030,1 hPa 0,0 l/m 4,5 km/h (1 Bft) W 276 2,1 C 4,9 C 9,7 km/h (2 Bft)
14.04.2021 18:40 4,8 C 82 % 1030,1 hPa 0,0 l/m 3,9 km/h (1 Bft) W-SW 239 2,0 C 4,8 C 8,0 km/h (2 Bft)
14.04.2021 18:35 4,7 C 81 % 1030,1 hPa 0,0 l/m 5,7 km/h (2 Bft) W-NW 283 1,7 C 4,7 C 12,9 km/h (3 Bft)
14.04.2021 18:30 4,7 C 83 % 1030,1 hPa 0,0 l/m 5,0 km/h (1 Bft) W 266 2,1 C 4,7 C 11,3 km/h (2 Bft)
14.04.2021 18:25 4,6 C 83 % 1030,3 hPa 0,0 l/m 4,3 km/h (1 Bft) W 265 2,0 C 4,6 C 11,3 km/h (2 Bft)
14.04.2021 18:20 4,6 C 84 % 1030,3 hPa 0,0 l/m 3,2 km/h (1 Bft) SW 231 2,1 C 4,6 C 6,4 km/h (2 Bft)
14.04.2021 18:15 4,4 C 84 % 1030,3 hPa 0,0 l/m 4,2 km/h (1 Bft) S-SW 207 1,9 C 4,4 C 8,0 km/h (2 Bft)
14.04.2021 18:10 4,3 C 85 % 1030,3 hPa 0,0 l/m 5,2 km/h (1 Bft) SW 218 2,0 C 4,3 C 8,0 km/h (2 Bft)
14.04.2021 18:05 4,1 C 87 % 1030,3 hPa 0,0 l/m 3,1 km/h (1 Bft) SW 223 2,1 C 4,1 C 6,4 km/h (2 Bft)
14.04.2021 18:00 3,8 C 87 % 1030,5 hPa 0,0 l/m 3,5 km/h (1 Bft) W-SW 244 1,8 C 3,8 C 6,4 km/h (2 Bft)
14.04.2021 17:55 3,7 C 87 % 1030,6 hPa 0,0 l/m 3,0 km/h (1 Bft) SW 234 1,7 C 3,7 C 6,4 km/h (2 Bft)
14.04.2021 17:50 3,6 C 87 % 1030,5 hPa 0,0 l/m 2,7 km/h (1 Bft) SW 227 1,6 C 3,6 C 8,0 km/h (2 Bft)
14.04.2021 17:45 3,6 C 87 % 1030,6 hPa 0,0 l/m 2,9 km/h (1 Bft) W-SW 248 1,6 C 3,6 C 6,4 km/h (2 Bft)
14.04.2021 17:40 3,4 C 87 % 1030,5 hPa 0,0 l/m 3,4 km/h (1 Bft) W 273 1,4 C 3,4 C 6,4 km/h (2 Bft)
14.04.2021 17:35 3,4 C 87 % 1030,6 hPa 0,2 l/m 2,6 km/h (1 Bft) W-SW 253 1,4 C 3,4 C 4,8 km/h (1 Bft)
14.04.2021 17:30 3,4 C 86 % 1030,7 hPa 0,0 l/m 3,3 km/h (1 Bft) W 259 1,3 C 3,4 C 8,0 km/h (2 Bft)
14.04.2021 17:25 3,5 C 85 % 1030,8 hPa 0,2 l/m 3,5 km/h (1 Bft) NW 311 1,2 C 3,5 C 8,0 km/h (2 Bft)
14.04.2021 17:20 3,8 C 84 % 1031,0 hPa 0,0 l/m 6,4 km/h (2 Bft) N 355 1,4 C 3,8 C 14,5 km/h (3 Bft)
14.04.2021 17:15 4,1 C 82 % 1030,9 hPa 0,0 l/m 7,1 km/h (2 Bft) N-NO 15 1,3 C 3,5 C 16,1 km/h (3 Bft)
14.04.2021 17:10 4,6 C 81 % 1030,9 hPa 0,0 l/m 6,5 km/h (2 Bft) NO 46 1,6 C 4,5 C 17,7 km/h (3 Bft)
14.04.2021 17:05 5,1 C 78 % 1030,8 hPa 0,0 l/m 12,2 km/h (2 Bft) NO 44 1,6 C 0,8 C 20,9 km/h (4 Bft)
14.04.2021 17:00 6,1 C 75 % 1030,7 hPa 0,0 l/m 10,1 km/h (2 Bft) NO 54 2,0 C 3,2 C 24,1 km/h (4 Bft)
14.04.2021 16:55 6,7 C 65 % 1030,7 hPa 0,0 l/m 3,4 km/h (1 Bft) W-NW 297 0,6 C 6,7 C 14,5 km/h (3 Bft)
14.04.2021 16:50 6,5 C 66 % 1030,4 hPa 0,0 l/m 4,5 km/h (1 Bft) W 273 0,6 C 6,5 C 12,9 km/h (3 Bft)
14.04.2021 16:45 6,2 C 68 % 1030,4 hPa 0,0 l/m 6,9 km/h (2 Bft) W-SW 252 0,7 C 5,8 C 12,9 km/h (3 Bft)
14.04.2021 16:40 5,9 C 72 % 1030,4 hPa 0,0 l/m 5,9 km/h (2 Bft) W 277 1,2 C 5,9 C 12,9 km/h (3 Bft)
14.04.2021 16:35 5,2 C 75 % 1030,4 hPa 0,0 l/m 4,0 km/h (1 Bft) W 259 1,1 C 5,2 C 11,3 km/h (2 Bft)
14.04.2021 16:30 4,9 C 74 % 1030,5 hPa 0,0 l/m 6,6 km/h (2 Bft) W-NW 289 0,7 C 4,7 C 12,9 km/h (3 Bft)
14.04.2021 16:25 5,1 C 73 % 1030,6 hPa 0,0 l/m 6,2 km/h (2 Bft) W 263 0,7 C 5,1 C 12,9 km/h (3 Bft)
14.04.2021 16:20 5,0 C 70 % 1030,5 hPa 0,0 l/m 5,6 km/h (2 Bft) W-NW 297 -0,0 C 5,0 C 11,3 km/h (2 Bft)
14.04.2021 16:15 4,9 C 71 % 1030,5 hPa 0,0 l/m 5,9 km/h (2 Bft) W 260 0,1 C 4,9 C 14,5 km/h (3 Bft)
14.04.2021 16:10 4,9 C 72 % 1030,5 hPa 0,0 l/m 6,3 km/h (2 Bft) W 269 0,3 C 4,9 C 14,5 km/h (3 Bft)
14.04.2021 16:05 5,2 C 72 % 1030,6 hPa 0,0 l/m 8,2 km/h (2 Bft) W-SW 250 0,6 C 3,6 C 16,1 km/h (3 Bft)
14.04.2021 16:00 5,9 C 72 % 1030,6 hPa 0,0 l/m 9,0 km/h (2 Bft) W-NW 302 1,2 C 3,8 C 17,7 km/h (3 Bft)
14.04.2021 15:55 7,1 C 69 % 1030,7 hPa 0,0 l/m 9,5 km/h (2 Bft) W-NW 300 1,8 C 4,7 C 20,9 km/h (4 Bft)
14.04.2021 15:50 8,2 C 62 % 1030,7 hPa 0,0 l/m 5,8 km/h (2 Bft) N 360 1,4 C 8,2 C 16,1 km/h (3 Bft)
14.04.2021 15:45 8,1 C 57 % 1030,5 hPa 0,0 l/m 2,1 km/h (1 Bft) O-NO 61 0,1 C 8,1 C 4,8 km/h (1 Bft)
14.04.2021 15:40 8,1 C 57 % 1030,7 hPa 0,0 l/m 1,7 km/h (1 Bft) N 349 0,1 C 8,1 C 4,8 km/h (1 Bft)
14.04.2021 15:35 8,0 C 57 % 1030,7 hPa 0,0 l/m 0,3 km/h (0 Bft) NW 315 0,0 C 8,0 C 3,2 km/h (1 Bft)
14.04.2021 15:30 8,0 C 59 % 1030,8 hPa 0,0 l/m 1,7 km/h (1 Bft) NW 304 0,5 C 8,0 C 4,8 km/h (1 Bft)
14.04.2021 15:25 8,2 C 58 % 1030,8 hPa 0,0 l/m 3,5 km/h (1 Bft) N-NO 32 0,4 C 8,2 C 9,7 km/h (2 Bft)
14.04.2021 15:20 8,6 C 58 % 1030,9 hPa 0,0 l/m 2,6 km/h (1 Bft) N-NO 33 0,8 C 8,6 C 11,3 km/h (2 Bft)
14.04.2021 15:15 8,7 C 57 % 1031,0 hPa 0,0 l/m 3,6 km/h (1 Bft) W-SW 254 0,7 C 8,7 C 9,7 km/h (2 Bft)
14.04.2021 15:10 8,7 C 55 % 1031,1 hPa 0,0 l/m 1,3 km/h (1 Bft) S-SW 198 0,2 C 8,7 C 4,8 km/h (1 Bft)
14.04.2021 15:05 8,2 C 55 % 1031,1 hPa 0,0 l/m 1,7 km/h (1 Bft) N-NW 338 -0,3 C 8,2 C 4,8 km/h (1 Bft)
14.04.2021 15:00 8,1 C 58 % 1031,1 hPa 0,0 l/m 4,1 km/h (1 Bft) O-NO 57 0,3 C 8,1 C 12,9 km/h (3 Bft)
14.04.2021 14:55 8,2 C 60 % 1031,2 hPa 0,0 l/m 5,5 km/h (2 Bft) N-NO 17 0,9 C 8,2 C 14,5 km/h (3 Bft)
14.04.2021 14:50 8,1 C 59 % 1031,3 hPa 0,0 l/m 3,7 km/h (1 Bft) W-NW 291 0,6 C 8,1 C 9,7 km/h (2 Bft)
14.04.2021 14:45 7,8 C 60 % 1031,3 hPa 0,0 l/m 2,2 km/h (1 Bft) N-NO 30 0,5 C 7,8 C 6,4 km/h (2 Bft)
14.04.2021 14:40 7,5 C 59 % 1031,3 hPa 0,0 l/m 2,4 km/h (1 Bft) SW 234 0,0 C 7,5 C 6,4 km/h (2 Bft)
14.04.2021 14:35 7,6 C 59 % 1031,3 hPa 0,0 l/m 3,4 km/h (1 Bft) W 271 0,1 C 7,6 C 6,4 km/h (2 Bft)
14.04.2021 14:30 7,5 C 61 % 1031,3 hPa 0,0 l/m 5,1 km/h (1 Bft) NW 306 0,5 C 7,5 C 11,3 km/h (2 Bft)
14.04.2021 14:25 7,3 C 63 % 1031,4 hPa 0,0 l/m 4,1 km/h (1 Bft) W-NW 288 0,7 C 7,3 C 11,3 km/h (2 Bft)
14.04.2021 14:20 7,1 C 63 % 1031,5 hPa 0,0 l/m 5,2 km/h (1 Bft) N-NW 332 0,5 C 7,1 C 11,3 km/h (2 Bft)
14.04.2021 14:15 6,8 C 64 % 1031,4 hPa 0,0 l/m 2,8 km/h (1 Bft) SW 221 0,5 C 6,8 C 8,0 km/h (2 Bft)
14.04.2021 14:10 6,7 C 63 % 1031,5 hPa 0,0 l/m 1,6 km/h (1 Bft) W-SW 252 0,2 C 6,7 C 6,4 km/h (2 Bft)
14.04.2021 14:05 6,4 C 65 % 1031,5 hPa 0,0 l/m 3,9 km/h (1 Bft) W-SW 252 0,3 C 6,4 C 9,7 km/h (2 Bft)
14.04.2021 14:00 6,2 C 66 % 1031,6 hPa 0,0 l/m 3,5 km/h (1 Bft) W-SW 255 0,3 C 6,2 C 9,7 km/h (2 Bft)
14.04.2021 13:55 6,1 C 67 % 1031,7 hPa 0,0 l/m 3,2 km/h (1 Bft) N 11 0,4 C 6,1 C 6,4 km/h (2 Bft)
14.04.2021 13:50 5,9 C 64 % 1031,8 hPa 0,0 l/m 2,6 km/h (1 Bft) N-NO 15 -0,4 C 5,9 C 6,4 km/h (2 Bft)
14.04.2021 13:45 5,8 C 65 % 1031,8 hPa 0,0 l/m 0,7 km/h (0 Bft) W 281 -0,3 C 5,8 C 3,2 km/h (1 Bft)
14.04.2021 13:40 5,7 C 66 % 1031,8 hPa 0,0 l/m 1,9 km/h (1 Bft) SW 219 -0,1 C 5,7 C 4,8 km/h (1 Bft)
14.04.2021 13:35 5,7 C 68 % 1031,9 hPa 0,0 l/m 0,4 km/h (0 Bft) O 87 0,3 C 5,7 C 1,6 km/h (1 Bft)
14.04.2021 13:30 5,4 C 70 % 1032,0 hPa 0,0 l/m 0,6 km/h (0 Bft) O 84 0,4 C 5,4 C 3,2 km/h (1 Bft)
14.04.2021 13:25 5,1 C 70 % 1032,1 hPa 0,0 l/m 3,1 km/h (1 Bft) O 82 0,1 C 5,1 C 6,4 km/h (2 Bft)
14.04.2021 13:20 5,1 C 72 % 1032,2 hPa 0,0 l/m 3,8 km/h (1 Bft) NO 40 0,5 C 5,1 C 9,7 km/h (2 Bft)
14.04.2021 13:15 4,8 C 73 % 1032,3 hPa 0,0 l/m 5,3 km/h (1 Bft) NO 49 0,4 C 4,8 C 12,9 km/h (3 Bft)
14.04.2021 13:10 4,4 C 75 % 1032,3 hPa 0,0 l/m 6,9 km/h (2 Bft) NO 45 0,4 C 4,0 C 14,5 km/h (3 Bft)
14.04.2021 13:05 4,3 C 77 % 1032,4 hPa 0,0 l/m 5,9 km/h (2 Bft) O-NO 61 0,6 C 4,3 C 16,1 km/h (3 Bft)
14.04.2021 13:00 4,1 C 77 % 1032,4 hPa 0,0 l/m 6,9 km/h (2 Bft) NO 38 0,4 C 3,7 C 14,5 km/h (3 Bft)
14.04.2021 12:55 4,0 C 78 % 1032,4 hPa 0,0 l/m 5,9 km/h (2 Bft) NO 35 0,5 C 4,0 C 14,5 km/h (3 Bft)
14.04.2021 12:50 3,9 C 78 % 1032,5 hPa 0,0 l/m 5,6 km/h (2 Bft) O-NO 66 0,4 C 3,9 C 14,5 km/h (3 Bft)
14.04.2021 12:45 4,0 C 77 % 1032,6 hPa 0,0 l/m 6,0 km/h (2 Bft) N-NO 24 0,3 C 4,0 C 14,5 km/h (3 Bft)
14.04.2021 12:40 4,1 C 75 % 1032,5 hPa 0,0 l/m 8,6 km/h (2 Bft) N-NO 15 0,1 C 2,2 C 19,3 km/h (3 Bft)
14.04.2021 12:35 4,3 C 73 % 1032,5 hPa 0,0 l/m 8,8 km/h (2 Bft) N-NO 12 -0,1 C 2,2 C 19,3 km/h (3 Bft)
14.04.2021 12:30 4,5 C 74 % 1032,5 hPa 0,0 l/m 9,3 km/h (2 Bft) N-NO 16 0,3 C 2,0 C 22,5 km/h (4 Bft)
14.04.2021 12:25 4,7 C 73 % 1032,4 hPa 0,0 l/m 10,4 km/h (2 Bft) N-NO 23 0,3 C 1,5 C 22,5 km/h (4 Bft)
14.04.2021 12:20 5,1 C 71 % 1032,3 hPa 0,0 l/m 8,2 km/h (2 Bft) NW 316 0,3 C 3,5 C 17,7 km/h (3 Bft)
14.04.2021 12:15 5,4 C 68 % 1032,3 hPa 0,0 l/m 8,1 km/h (2 Bft) N-NO 27 -0,0 C 3,9 C 19,3 km/h (3 Bft)
14.04.2021 12:10 6,0 C 61 % 1032,3 hPa 0,0 l/m 6,5 km/h (2 Bft) N-NO 17 -0,9 C 5,9 C 22,5 km/h (4 Bft)
14.04.2021 12:05 6,1 C 54 % 1032,1 hPa 0,0 l/m 2,8 km/h (1 Bft) SW 228 -2,5 C 6,1 C 6,4 km/h (2 Bft)
14.04.2021 12:00 6,2 C 55 % 1032,1 hPa 0,0 l/m 3,1 km/h (1 Bft) W-NW 296 -2,2 C 6,2 C 11,3 km/h (2 Bft)
14.04.2021 11:55 6,2 C 54 % 1032,2 hPa 0,0 l/m 1,8 km/h (1 Bft) N-NO 32 -2,4 C 6,2 C 4,8 km/h (1 Bft)
14.04.2021 11:50 6,2 C 55 % 1032,2 hPa 0,0 l/m 2,5 km/h (1 Bft) NO 34 -2,2 C 6,2 C 6,4 km/h (2 Bft)
14.04.2021 11:45 6,3 C 53 % 1032,2 hPa 0,0 l/m 3,6 km/h (1 Bft) NO 44 -2,6 C 6,3 C 6,4 km/h (2 Bft)
14.04.2021 11:40 6,5 C 51 % 1032,2 hPa 0,0 l/m 2,5 km/h (1 Bft) NO 50 -2,9 C 6,5 C 6,4 km/h (2 Bft)
14.04.2021 11:35 6,4 C 54 % 1032,1 hPa 0,0 l/m 1,7 km/h (1 Bft) O-NO 67 -2,2 C 6,4 C 6,4 km/h (2 Bft)
14.04.2021 11:30 6,6 C 52 % 1032,1 hPa 0,0 l/m 2,7 km/h (1 Bft) O-NO 57 -2,5 C 6,6 C 8,0 km/h (2 Bft)
14.04.2021 11:25 6,6 C 53 % 1032,2 hPa 0,0 l/m 3,0 km/h (1 Bft) NO 39 -2,3 C 6,6 C 6,4 km/h (2 Bft)
14.04.2021 11:20 6,8 C 51 % 1032,1 hPa 0,0 l/m 4,7 km/h (1 Bft) NO 51 -2,6 C 6,8 C 8,0 km/h (2 Bft)
14.04.2021 11:15 7,2 C 47 % 1032,1 hPa 0,0 l/m 3,5 km/h (1 Bft) N-NO 12 -3,3 C 7,2 C 8,0 km/h (2 Bft)
14.04.2021 11:10 7,6 C 51 % 1032,1 hPa 0,0 l/m 2,2 km/h (1 Bft) NO 51 -1,9 C 7,6 C 6,4 km/h (2 Bft)
14.04.2021 11:05 7,8 C 49 % 1032,1 hPa 0,0 l/m 3,1 km/h (1 Bft) NO 44 -2,2 C 7,8 C 8,0 km/h (2 Bft)
14.04.2021 11:00 8,1 C 50 % 1032,2 hPa 0,0 l/m 2,0 km/h (1 Bft) N-NO 30 -1,7 C 8,1 C 4,8 km/h (1 Bft)
14.04.2021 10:55 8,0 C 51 % 1032,2 hPa 0,0 l/m 2,2 km/h (1 Bft) O-NO 78 -1,5 C 8,0 C 9,7 km/h (2 Bft)
14.04.2021 10:50 7,7 C 57 % 1032,3 hPa 0,0 l/m 2,1 km/h (1 Bft) O-SO 113 -0,3 C 7,7 C 4,8 km/h (1 Bft)
14.04.2021 10:45 7,4 C 59 % 1032,3 hPa 0,0 l/m 2,1 km/h (1 Bft) S-SW 207 -0,1 C 7,4 C 4,8 km/h (1 Bft)
14.04.2021 10:40 7,8 C 57 % 1032,3 hPa 0,0 l/m 1,9 km/h (1 Bft) S-SW 202 -0,2 C 7,8 C 4,8 km/h (1 Bft)
14.04.2021 10:35 7,9 C 58 % 1032,4 hPa 0,0 l/m 1,6 km/h (1 Bft) O-SO 105 0,2 C 7,9 C 4,8 km/h (1 Bft)
14.04.2021 10:30 7,7 C 57 % 1032,3 hPa 0,0 l/m 1,0 km/h (0 Bft) NO 55 -0,3 C 7,7 C 6,4 km/h (2 Bft)
14.04.2021 10:25 7,6 C 60 % 1032,3 hPa 0,0 l/m 0,9 km/h (0 Bft) O 93 0,3 C 7,6 C 6,4 km/h (2 Bft)
14.04.2021 10:20 7,6 C 59 % 1032,4 hPa 0,0 l/m 0,6 km/h (0 Bft) O-SO 107 0,1 C 7,6 C 4,8 km/h (1 Bft)
14.04.2021 10:15 7,3 C 60 % 1032,4 hPa 0,0 l/m 0,0 km/h (0 Bft) N-NW 338 0,1 C 7,3 C 0,0 km/h (0 Bft)
14.04.2021 10:10 6,9 C 61 % 1032,4 hPa 0,0 l/m 0,7 km/h (0 Bft) O-SO 112 -0,1 C 6,9 C 3,2 km/h (1 Bft)
14.04.2021 10:05 6,8 C 63 % 1032,3 hPa 0,0 l/m 2,2 km/h (1 Bft) O-SO 117 0,3 C 6,8 C 6,4 km/h (2 Bft)
14.04.2021 10:00 6,4 C 67 % 1032,4 hPa 0,0 l/m 0,5 km/h (0 Bft) O 95 0,7 C 6,4 C 3,2 km/h (1 Bft)
14.04.2021 09:55 6,0 C 68 % 1032,4 hPa 0,0 l/m 0,5 km/h (0 Bft) SW 236 0,6 C 6,0 C 3,2 km/h (1 Bft)
14.04.2021 09:50 5,7 C 68 % 1032,4 hPa 0,0 l/m 1,6 km/h (1 Bft) W-SW 248 0,3 C 5,7 C 4,8 km/h (1 Bft)
14.04.2021 09:45 5,5 C 69 % 1032,4 hPa 0,0 l/m 1,6 km/h (1 Bft) W-SW 245 0,3 C 5,5 C 4,8 km/h (1 Bft)
14.04.2021 09:40 5,3 C 70 % 1032,4 hPa 0,0 l/m 1,2 km/h (1 Bft) NW 313 0,3 C 5,3 C 6,4 km/h (2 Bft)
14.04.2021 09:35 5,0 C 72 % 1032,3 hPa 0,0 l/m 0,9 km/h (0 Bft) W 277 0,4 C 5,0 C 4,8 km/h (1 Bft)
14.04.2021 09:30 4,8 C 72 % 1032,4 hPa 0,0 l/m 2,7 km/h (1 Bft) W 277 0,2 C 4,8 C 6,4 km/h (2 Bft)
14.04.2021 09:25 4,6 C 74 % 1032,4 hPa 0,0 l/m 2,2 km/h (1 Bft) W 264 0,4 C 4,6 C 4,8 km/h (1 Bft)
14.04.2021 09:20 4,3 C 74 % 1032,4 hPa 0,0 l/m 3,0 km/h (1 Bft) W 272 0,1 C 4,3 C 8,0 km/h (2 Bft)
14.04.2021 09:15 4,1 C 75 % 1032,3 hPa 0,0 l/m 3,0 km/h (1 Bft) SW 234 0,1 C 4,1 C 4,8 km/h (1 Bft)
14.04.2021 09:10 3,7 C 77 % 1032,3 hPa 0,0 l/m 2,8 km/h (1 Bft) W 270 0,1 C 3,7 C 4,8 km/h (1 Bft)
14.04.2021 09:05 3,3 C 78 % 1032,4 hPa 0,0 l/m 2,1 km/h (1 Bft) SW 228 -0,2 C 3,3 C 6,4 km/h (2 Bft)
14.04.2021 09:00 2,8 C 80 % 1032,5 hPa 0,0 l/m 3,8 km/h (1 Bft) W 271 -0,3 C 2,8 C 9,7 km/h (2 Bft)
14.04.2021 08:55 2,2 C 86 % 1032,5 hPa 0,0 l/m 0,0 km/h (0 Bft) SW 226 0,1 C 2,2 C 1,6 km/h (1 Bft)
14.04.2021 08:50 1,7 C 86 % 1032,5 hPa 0,0 l/m 0,0 km/h (0 Bft) SW 226 -0,4 C 1,7 C 1,6 km/h (1 Bft)
14.04.2021 08:45 1,3 C 87 % 1032,5 hPa 0,0 l/m 0,0 km/h (0 Bft) SW 225 -0,6 C 1,3 C 0,0 km/h (0 Bft)
14.04.2021 08:40 1,0 C 87 % 1032,5 hPa 0,0 l/m 0,0 km/h (0 Bft) SW 225 -0,9 C 1,0 C 0,0 km/h (0 Bft)
14.04.2021 08:35 0,6 C 88 % 1032,6 hPa 0,0 l/m 0,0 km/h (0 Bft) SW 225 -1,2 C 0,6 C 0,0 km/h (0 Bft)
14.04.2021 08:30 0,1 C 89 % 1032,6 hPa 0,0 l/m 0,0 km/h (0 Bft) SW 225 -1,5 C 0,1 C 0,0 km/h (0 Bft)
14.04.2021 08:25 -0,2 C 90 % 1032,7 hPa 0,0 l/m 0,0 km/h (0 Bft) SW 225 -1,6 C -0,2 C 0,0 km/h (0 Bft)
14.04.2021 08:20 -0,5 C 90 % 1032,8 hPa 0,0 l/m 0,0 km/h (0 Bft) SW 225 -1,9 C -0,5 C 0,0 km/h (0 Bft)
14.04.2021 08:15 -0,7 C 90 % 1032,7 hPa 0,0 l/m 0,0 km/h (0 Bft) SW 225 -2,1 C -0,7 C 0,0 km/h (0 Bft)
14.04.2021 08:10 -0,8 C 90 % 1032,6 hPa 0,0 l/m 0,0 km/h (0 Bft) SW 225 -2,2 C -0,8 C 0,0 km/h (0 Bft)
14.04.2021 08:05 -1,0 C 91 % 1032,6 hPa 0,0 l/m 0,0 km/h (0 Bft) SW 225 -2,3 C -1,0 C 0,0 km/h (0 Bft)
14.04.2021 08:00 -1,2 C 91 % 1032,6 hPa 0,0 l/m 0,0 km/h (0 Bft) SW 225 -2,5 C -1,2 C 0,0 km/h (0 Bft)
14.04.2021 07:55 -1,4 C 91 % 1032,5 hPa 0,0 l/m 0,0 km/h (0 Bft) SW 225 -2,7 C -1,4 C 0,0 km/h (0 Bft)
14.04.2021 07:50 -1,7 C 92 % 1032,5 hPa 0,0 l/m 0,0 km/h (0 Bft) SW 225 -2,8 C -1,7 C 0,0 km/h (0 Bft)
14.04.2021 07:45 -2,0 C 91 % 1032,5 hPa 0,0 l/m 0,0 km/h (0 Bft) SW 225 -3,3 C -2,0 C 0,0 km/h (0 Bft)
14.04.2021 07:40 -2,1 C 90 % 1032,4 hPa 0,0 l/m 0,0 km/h (0 Bft) SW 225 -3,5 C -2,1 C 0,0 km/h (0 Bft)
14.04.2021 07:35 -2,2 C 91 % 1032,3 hPa 0,0 l/m 0,0 km/h (0 Bft) SW 225 -3,5 C -2,2 C 0,0 km/h (0 Bft)
14.04.2021 07:30 -2,4 C 90 % 1032,3 hPa 0,0 l/m 0,0 km/h (0 Bft) SW 225 -3,8 C -2,4 C 0,0 km/h (0 Bft)
14.04.2021 07:25 -2,4 C 89 % 1032,3 hPa 0,0 l/m 0,0 km/h (0 Bft) SW 225 -4,0 C -2,4 C 0,0 km/h (0 Bft)
14.04.2021 07:20 -2,4 C 89 % 1032,3 hPa 0,0 l/m 0,0 km/h (0 Bft) SW 225 -4,0 C -2,4 C 0,0 km/h (0 Bft)
14.04.2021 07:15 -2,3 C 89 % 1032,2 hPa 0,0 l/m 0,0 km/h (0 Bft) SW 225 -3,9 C -2,3 C 0,0 km/h (0 Bft)
14.04.2021 07:10 -2,2 C 89 % 1032,2 hPa 0,0 l/m 0,0 km/h (0 Bft) SW 225 -3,8 C -2,2 C 0,0 km/h (0 Bft)
14.04.2021 07:05 -2,2 C 88 % 1032,2 hPa 0,0 l/m 0,0 km/h (0 Bft) SW 225 -3,9 C -2,2 C 0,0 km/h (0 Bft)
14.04.2021 07:00 -2,1 C 89 % 1032,3 hPa 0,0 l/m 0,0 km/h (0 Bft) SW 225 -3,7 C -2,1 C 0,0 km/h (0 Bft)
14.04.2021 06:55 -1,9 C 88 % 1032,1 hPa 0,0 l/m 0,0 km/h (0 Bft) SW 225 -3,6 C -1,9 C 0,0 km/h (0 Bft)
14.04.2021 06:50 -1,9 C 89 % 1032,1 hPa 0,0 l/m 0,0 km/h (0 Bft) SW 225 -3,5 C -1,9 C 0,0 km/h (0 Bft)
14.04.2021 06:45 -1,8 C 89 % 1032,1 hPa 0,0 l/m 0,0 km/h (0 Bft) SW 225 -3,4 C -1,8 C 0,0 km/h (0 Bft)
14.04.2021 06:40 -1,8 C 89 % 1032,1 hPa 0,0 l/m 0,0 km/h (0 Bft) SW 225 -3,4 C -1,8 C 0,0 km/h (0 Bft)
14.04.2021 06:35 -1,7 C 88 % 1032,0 hPa 0,0 l/m 0,0 km/h (0 Bft) SW 225 -3,4 C -1,7 C 0,0 km/h (0 Bft)
14.04.2021 06:30 -1,7 C 89 % 1032,2 hPa 0,0 l/m 0,0 km/h (0 Bft) SW 225 -3,3 C -1,7 C 0,0 km/h (0 Bft)
14.04.2021 06:25 -1,7 C 88 % 1032,1 hPa 0,0 l/m 0,0 km/h (0 Bft) SW 225 -3,4 C -1,7 C 0,0 km/h (0 Bft)
14.04.2021 06:20 -1,6 C 88 % 1032,1 hPa 0,0 l/m 0,0 km/h (0 Bft) SW 225 -3,3 C -1,6 C 0,0 km/h (0 Bft)
14.04.2021 06:15 -1,6 C 88 % 1032,0 hPa 0,0 l/m 0,0 km/h (0 Bft) SW 225 -3,3 C -1,6 C 0,0 km/h (0 Bft)
14.04.2021 06:10 -1,6 C 88 % 1032,2 hPa 0,0 l/m 0,0 km/h (0 Bft) SW 225 -3,3 C -1,6 C 0,0 km/h (0 Bft)
14.04.2021 06:05 -1,5 C 87 % 1032,2 hPa 0,0 l/m 0,0 km/h (0 Bft) SW 225 -3,4 C -1,5 C 0,0 km/h (0 Bft)
14.04.2021 06:00 -1,4 C 87 % 1032,2 hPa 0,0 l/m 0,0 km/h (0 Bft) SW 225 -3,3 C -1,4 C 0,0 km/h (0 Bft)
14.04.2021 05:55 -1,3 C 87 % 1032,2 hPa 0,0 l/m 0,0 km/h (0 Bft) SW 225 -3,2 C -1,3 C 0,0 km/h (0 Bft)
14.04.2021 05:50 -1,3 C 87 % 1032,2 hPa 0,0 l/m 0,0 km/h (0 Bft) SW 225 -3,2 C -1,3 C 0,0 km/h (0 Bft)
14.04.2021 05:45 -1,2 C 87 % 1032,2 hPa 0,0 l/m 0,0 km/h (0 Bft) SW 225 -3,1 C -1,2 C 0,0 km/h (0 Bft)
14.04.2021 05:40 -1,2 C 86 % 1032,2 hPa 0,0 l/m 0,0 km/h (0 Bft) SW 225 -3,2 C -1,2 C 0,0 km/h (0 Bft)
14.04.2021 05:35 -1,1 C 87 % 1032,2 hPa 0,0 l/m 0,0 km/h (0 Bft) SW 225 -3,0 C -1,1 C 0,0 km/h (0 Bft)
14.04.2021 05:30 -1,0 C 86 % 1032,2 hPa 0,0 l/m 0,0 km/h (0 Bft) SW 225 -3,0 C -1,0 C 0,0 km/h (0 Bft)
14.04.2021 05:25 -0,9 C 86 % 1032,3 hPa 0,0 l/m 0,0 km/h (0 Bft) SW 225 -2,9 C -0,9 C 0,0 km/h (0 Bft)
14.04.2021 05:20 -0,8 C 86 % 1032,3 hPa 0,0 l/m 0,0 km/h (0 Bft) SW 225 -2,8 C -0,8 C 0,0 km/h (0 Bft)
14.04.2021 05:15 -0,6 C 85 % 1032,2 hPa 0,0 l/m 0,0 km/h (0 Bft) SW 225 -2,8 C -0,6 C 0,0 km/h (0 Bft)
14.04.2021 05:10 -0,4 C 85 % 1032,3 hPa 0,0 l/m 0,0 km/h (0 Bft) SW 225 -2,6 C -0,4 C 0,0 km/h (0 Bft)
14.04.2021 05:05 -0,4 C 85 % 1032,3 hPa 0,0 l/m 0,0 km/h (0 Bft) SW 225 -2,6 C -0,4 C 0,0 km/h (0 Bft)
14.04.2021 05:00 -0,3 C 84 % 1032,4 hPa 0,0 l/m 0,0 km/h (0 Bft) SW 225 -2,7 C -0,3 C 0,0 km/h (0 Bft)
_ Min-Zeit 07:20 11:15 19:35 - 05:00 - - 07:20 07:20 05:00
Minimum _ -2,4 C 47 % 1029,9 hPa - 0,0 km/h (0 Bft) - - -4,0 C -2,4 C 0,0 km/h (0 Bft)
_ Max-Zeit 15:15 07:50 08:20 17:25 17:05 - - 19:30 15:10 17:00
Maximum _ 8,8 C 92 % 1032,8 hPa 0,2 l/m 12,2 km/h
NO (2 Bft)
- - 2,2 C 8,7 C 24,1 km/h
NO (4 Bft)
Durchschnitt _ 2,5 C 80 % 1031,3 hPa #0,4 l/m 1,8 km/h (1 Bft) SW - -0,8 C 2,4 C 4,7 km/h (1 Bft)
www.klaudt.eu